Home > Products > Valid Products > TAF

000
FTUS46 KMTR 010002 AAA
TAFSFO
TAF AMD
KSFO 010002Z 0100/0206 30019G25KT P6SM FEW015
     FM010300 29015KT P6SM FEW012
     FM010600 29008KT P6SM FEW012
     FM011000 28008KT P6SM SCT012
      TEMPO 0110/0114 BKN012
     FM011900 26014G19KT P6SM FEW014
     FM020400 27014KT P6SM FEW012=



000
FTUS46 KMTR 010002 AAA
TAFSFO
TAF AMD
KSFO 010002Z 0100/0206 30019G25KT P6SM FEW015
     FM010300 29015KT P6SM FEW012
     FM010600 29008KT P6SM FEW012
     FM011000 28008KT P6SM SCT012
      TEMPO 0110/0114 BKN012
     FM011900 26014G19KT P6SM FEW014
     FM020400 27014KT P6SM FEW012=



000
FTUS46 KMTR 312340
TAFMRY
TAF
KMRY 312340Z 0100/0124 29010KT P6SM FEW015
     FM010200 24005KT P6SM SCT011
      TEMPO 0103/0105 BKN010
     FM010500 23004KT P6SM OVC007
     FM011700 29007KT P6SM FEW012=



000
FTUS46 KMTR 312340
TAFSFO
TAF
KSFO 312340Z 0100/0206 30015G22KT P6SM FEW015
     FM010300 29015KT P6SM FEW012
     FM010600 29008KT P6SM FEW012
     FM011000 28008KT P6SM SCT012
      TEMPO 0110/0114 BKN012
     FM011900 26014G19KT P6SM FEW014
     FM020400 27014KT P6SM FEW012=



000
FTUS46 KMTR 312340
TAFSNS
TAF
KSNS 312340Z 0100/0124 28010G15KT P6SM SKC
     FM010200 29008KT P6SM FEW015
      TEMPO 0103/0107 BKN010
     FM010700 29004KT P6SM OVC007
     FM011800 29012KT P6SM FEW012=



000
FTUS46 KMTR 312340
TAFOAK
TAF
KOAK 312340Z 0100/0206 28012G18KT P6SM SKC
     FM010400 28008KT P6SM SKC
     FM010900 24004KT P6SM SCT015
      TEMPO 0111/0115 BKN012
     FM011800 23012KT P6SM FEW015
     FM012000 29017G22KT P6SM FEW015
     FM020300 28011KT P6SM FEW015=



000
FTUS46 KMTR 312340
TAFSJC
TAF
KSJC 312340Z 0100/0124 32016KT P6SM SKC
     FM010400 30008KT P6SM SKC
     FM011000 15004KT P6SM FEW015
     FM011800 32011KT P6SM SKC=



000
FTUS46 KMTR 312340
TAFSTS
TAF
KSTS 312340Z 0100/0124 24011KT P6SM SKC
     FM010400 VRB03KT P6SM SKC
     FM011800 21009KT P6SM SKC=



000
FTUS46 KMTR 312340
TAFLVK
TAF
KLVK 312340Z 0100/0124 29014KT P6SM SKC
     FM010300 29008KT P6SM SKC
     FM010900 VRB03KT P6SM SKC
     FM011700 26005KT P6SM SKC=



000
FTUS46 KMTR 312102 AAA
TAFSFO
TAF AMD
KSFO 312102Z 3121/0124 30015G25KT P6SM FEW015
     FM010400 29012KT P6SM FEW012
     FM010600 29008KT P6SM FEW012
     FM011000 28008KT P6SM OVC012
     FM011700 26008KT P6SM FEW012=



000
FTUS46 KMTR 311735
TAFSJC
TAF
KSJC 311735Z 3118/0118 VRB03KT P6SM SKC
     FM312000 32012KT P6SM SKC
     FM010400 30008KT P6SM SKC
     FM011000 15004KT P6SM BKN015
     FM011600 14005KT P6SM FEW015=



000
FTUS46 KMTR 311735
TAFSTS
TAF
KSTS 311735Z 3118/0118 VRB03KT P6SM SKC
     FM312000 19008KT P6SM SKC
     FM010200 16008KT P6SM SKC
     FM010500 VRB03KT P6SM SKC=



000
FTUS46 KMTR 311735
TAFSFO
TAF
KSFO 311735Z 3118/0124 03004KT P6SM FEW015
     FM312000 31010KT P6SM FEW015
     FM312300 29018G26KT P6SM FEW015
     FM010400 29012KT P6SM FEW012
     FM010600 29008KT P6SM FEW012
     FM011000 28008KT P6SM OVC012
     FM011700 26008KT P6SM FEW012=



000
FTUS46 KMTR 311735
TAFSNS
TAF
KSNS 311735Z 3118/0118 29005KT P6SM SKC
     FM312000 28010G15KT P6SM SKC
     FM010300 29008KT P6SM OVC015
     FM010600 32004KT P6SM OVC015
     FM011100 24004KT P6SM OVC012=



000
FTUS46 KMTR 311735
TAFOAK
TAF
KOAK 311735Z 3118/0124 23005KT P6SM FEW015
     FM312000 28012G18KT P6SM FEW250
     FM010400 28008KT P6SM FEW020
     FM010900 24004KT P6SM BKN015
     FM011800 23008KT P6SM SKC=



000
FTUS46 KMTR 311735
TAFMRY
TAF
KMRY 311735Z 3118/0118 27005KT P6SM SCT015
     FM312000 29010KT P6SM FEW015
     FM010200 24005KT P6SM SCT015 BKN025
     FM010300 23004KT P6SM OVC015=



000
FTUS46 KMTR 311735
TAFLVK
TAF
KLVK 311735Z 3118/0118 VRB03KT P6SM SKC
     FM312000 28008KT P6SM SKC
     FM312300 28014KT P6SM SKC
     FM010300 29008KT P6SM SKC
     FM010900 VRB03KT P6SM SKC
     FM011700 26005KT P6SM SKC=



000
FTUS46 KMTR 311502 AAA
TAFSFO
TAF AMD
KSFO 311502Z 3115/0118 VRB03KT P6SM FEW010
     FM311800 32008KT P6SM FEW015
     FM312100 29018G26KT P6SM SKC
     FM010400 29012KT P6SM FEW012
     FM010900 29006KT P6SM FEW012=



000
FTUS46 KMTR 311502 AAA
TAFSFO
TAF AMD
KSFO 311502Z 3115/0118 VRB03KT P6SM FEW010
     FM311800 32008KT P6SM FEW015
     FM312100 29018G26KT P6SM SKC
     FM010400 29012KT P6SM FEW012
     FM010900 29006KT P6SM FEW012=



000
FTUS46 KMTR 311445 AAA
TAFMRY
TAF AMD
KMRY 311445Z 3115/0112 23005KT P6SM OVC012
     FM311630 27005KT P6SM SCT012
     FM311800 27010KT P6SM SKC
     FM010200 24005KT P6SM SKC=



000
FTUS46 KMTR 311344 AAA
TAFSNS
TAF AMD
KSNS 311344Z 3114/0112 30003KT P6SM BKN008
     FM311600 31005KT P6SM SCT010
     FM311800 29010KT P6SM SKC
     FM010400 29006KT P6SM SKC=



000
FTUS46 KMTR 311126
TAFSTS
TAF
KSTS 311126Z 3112/0112 VRB03KT P6SM SKC
     FM311800 24007KT P6SM SKC
     FM010200 VRB03KT P6SM SKC=



000
FTUS46 KMTR 311126
TAFLVK
TAF
KLVK 311126Z 3112/0112 VRB03KT P6SM SKC
     FM312000 29014KT P6SM SKC
     FM010300 29009KT P6SM SKC
     FM011000 VRB03KT P6SM SKC=



000
FTUS46 KMTR 311126
TAFSJC
TAF
KSJC 311126Z 3112/0112 15005KT P6SM SKC
     FM311800 VRB03KT P6SM SKC
     FM312000 32012KT P6SM SKC
     FM010300 30006KT P6SM SKC=



000
FTUS46 KMTR 311126
TAFOAK
TAF
KOAK 311126Z 3112/0118 28007KT P6SM FEW015
     FM312000 26015KT P6SM SKC
     FM010400 28010KT P6SM FEW020
     FM011000 28006KT P6SM FEW015=



000
FTUS46 KMTR 311126
TAFSFO
TAF
KSFO 311126Z 3112/0118 26008KT P6SM FEW015
     FM312100 29018G26KT P6SM SKC
     FM010400 29012KT P6SM FEW012
     FM010900 29006KT P6SM FEW012=



000
FTUS46 KMTR 311126
TAFSNS
TAF
KSNS 311126Z 3112/0112 30003KT P6SM SKC
     FM311400 31003KT P6SM SCT007
     FM311600 31005KT P6SM SKC
     FM312100 29010KT P6SM SKC
     FM010400 29006KT P6SM SKC=



000
FTUS46 KMTR 311126
TAFMRY
TAF
KMRY 311126Z 3112/0112 VRB03KT P6SM SCT007
     FM311300 VRB03KT P6SM BKN006
     FM311600 27005KT P6SM SCT008
     FM311800 27010KT P6SM SKC
     FM010200 24005KT P6SM SKC=



000
FTUS46 KMTR 311126
TAFSJC
TAF
KSJC 311126Z 3112/0112 15005KT P6SM SKC
     FM311800 VRB03KT P6SM SKC
     FM312000 32012KT P6SM SKC
     FM010300 30006KT P6SM SKC=



000
FTUS46 KMTR 311126
TAFLVK
TAF
KLVK 311126Z 3112/0112 VRB03KT P6SM SKC
     FM312000 29014KT P6SM SKC
     FM010300 29009KT P6SM SKC
     FM011000 VRB03KT P6SM SKC=



000
FTUS46 KMTR 311126
TAFSTS
TAF
KSTS 311126Z 3112/0112 VRB03KT P6SM SKC
     FM311800 24007KT P6SM SKC
     FM010200 VRB03KT P6SM SKC=



000
FTUS46 KMTR 311126
TAFOAK
TAF
KOAK 311126Z 3112/0118 28007KT P6SM FEW015
     FM312000 26015KT P6SM SKC
     FM010400 28010KT P6SM FEW020
     FM011000 28006KT P6SM FEW015=



000
FTUS46 KMTR 311126
TAFMRY
TAF
KMRY 311126Z 3112/0112 VRB03KT P6SM SCT007
     FM311300 VRB03KT P6SM BKN006
     FM311600 27005KT P6SM SCT008
     FM311800 27010KT P6SM SKC
     FM010200 24005KT P6SM SKC=



000
FTUS46 KMTR 311126
TAFSNS
TAF
KSNS 311126Z 3112/0112 30003KT P6SM SKC
     FM311400 31003KT P6SM SCT007
     FM311600 31005KT P6SM SKC
     FM312100 29010KT P6SM SKC
     FM010400 29006KT P6SM SKC=



000
FTUS46 KMTR 311126
TAFSFO
TAF
KSFO 311126Z 3112/0118 26008KT P6SM FEW015
     FM312100 29018G26KT P6SM SKC
     FM010400 29012KT P6SM FEW012
     FM010900 29006KT P6SM FEW012=



000
FTUS46 KMTR 310905 AAA
TAFSFO
TAF AMD
KSFO 310905Z 3109/0112 26008KT P6SM FEW015
     FM312100 29015G25KT P6SM SKC
     FM010400 29011KT P6SM FEW012=



000
FTUS46 KMTR 310520
TAFSFO
TAF
KSFO 310520Z 3106/0112 28015KT P6SM FEW015
     FM310900 26011KT P6SM SCT015
     FM311700 27008KT P6SM FEW015
     FM312100 29015G25KT P6SM SKC
     FM010400 29011KT P6SM FEW012=



000
FTUS46 KMTR 310520
TAFSTS
TAF
KSTS 310520Z 3106/0106 32009KT P6SM SKC
     FM310900 VRB03KT P6SM SKC
     FM311800 24007KT P6SM SKC
     FM010100 VRB03KT P6SM SKC=



000
FTUS46 KMTR 310520
TAFMRY
TAF
KMRY 310520Z 3106/0106 VRB03KT P6SM FEW007
     FM311700 27010KT P6SM SKC
     FM010200 24007KT P6SM FEW009=



000
FTUS46 KMTR 310520
TAFSNS
TAF
KSNS 310520Z 3106/0106 26010KT P6SM FEW009
     FM311700 27011KT P6SM SKC
     FM311900 29014KT P6SM SKC
     FM010200 29009KT P6SM FEW010=



000
FTUS46 KMTR 310520
TAFSFO
TAF
KSFO 310520Z 3106/0112 28015KT P6SM FEW015
     FM310900 26011KT P6SM SCT015
     FM311700 27008KT P6SM FEW015
     FM312100 29015G25KT P6SM SKC
     FM010400 29011KT P6SM FEW012=



000
FTUS46 KMTR 310520
TAFOAK
TAF
KOAK 310520Z 3106/0112 28007KT P6SM FEW015
     FM311900 26015G25KT P6SM FEW020
     FM010300 28015KT P6SM FEW020=



000
FTUS46 KMTR 310520
TAFMRY
TAF
KMRY 310520Z 3106/0106 VRB03KT P6SM FEW007
     FM311700 27010KT P6SM SKC
     FM010200 24007KT P6SM FEW009=



000
FTUS46 KMTR 310520
TAFSTS
TAF
KSTS 310520Z 3106/0106 32009KT P6SM SKC
     FM310900 VRB03KT P6SM SKC
     FM311800 24007KT P6SM SKC
     FM010100 VRB03KT P6SM SKC=



000
FTUS46 KMTR 310520
TAFSJC
TAF
KSJC 310520Z 3106/0106 30017KT P6SM SKC
     FM310800 32005KT P6SM FEW015
     FM311600 15003KT P6SM FEW015
     FM311800 32012KT P6SM SKC
     FM010300 30009KT P6SM SKC=



000
FTUS46 KMTR 310520
TAFSNS
TAF
KSNS 310520Z 3106/0106 26010KT P6SM FEW009
     FM311700 27011KT P6SM SKC
     FM311900 29014KT P6SM SKC
     FM010200 29009KT P6SM FEW010=



000
FTUS46 KMTR 310520
TAFOAK
TAF
KOAK 310520Z 3106/0112 28007KT P6SM FEW015
     FM311900 26015G25KT P6SM FEW020
     FM010300 28015KT P6SM FEW020=



000
FTUS46 KMTR 310520
TAFLVK
TAF
KLVK 310520Z 3106/0106 26005KT P6SM SKC
     FM311000 27004KT P6SM SCT015
     FM311600 VRB03KT P6SM SKC
     FM311800 29012KT P6SM SKC
     FM010300 29009KT P6SM SKC=



000
FTUS46 KMTR 310520
TAFSJC
TAF
KSJC 310520Z 3106/0106 30017KT P6SM SKC
     FM310800 32005KT P6SM FEW015
     FM311600 15003KT P6SM FEW015
     FM311800 32012KT P6SM SKC
     FM010300 30009KT P6SM SKC=



000
FTUS46 KMTR 310520
TAFLVK
TAF
KLVK 310520Z 3106/0106 26005KT P6SM SKC
     FM311000 27004KT P6SM SCT015
     FM311600 VRB03KT P6SM SKC
     FM311800 29012KT P6SM SKC
     FM010300 29009KT P6SM SKC=



000
FTUS46 KMTR 310152 AAA
TAFSFO
TAF AMD
KSFO 310152Z 3102/0106 28025G34KT P6SM FEW015
     FM310400 28015G20KT P6SM FEW015
     FM310900 26011KT P6SM SCT015
     FM311700 27008KT P6SM FEW015
     FM312100 29015G25KT P6SM SKC
     FM010400 29011KT P6SM FEW012=



000
FTUS46 KMTR 310142 AAA
TAFMRY
TAF AMD
KMRY 310142Z 3102/3124 29012KT P6SM SCT016
      TEMPO 3102/3103 BKN016
     FM310300 25008KT P6SM FEW016
     FM310500 VRB03KT P6SM FEW007
     FM311700 27010KT P6SM SKC=



000
FTUS46 KMTR 310142 AAA
TAFMRY
TAF AMD
KMRY 310142Z 3102/3124 29012KT P6SM SCT016
      TEMPO 3102/3103 BKN016
     FM310300 25008KT P6SM FEW016
     FM310500 VRB03KT P6SM FEW007
     FM311700 27010KT P6SM SKC=



000
FTUS46 KMTR 302345
TAFOAK
TAF
KOAK 302345Z 3100/0106 27014KT P6SM FEW012
     FM310700 28007KT P6SM SCT015
     FM311900 26015G25KT P6SM FEW020
     FM010300 28015KT P6SM FEW020=



000
FTUS46 KMTR 302345
TAFMRY
TAF
KMRY 302345Z 3100/3124 29010G22KT P6SM SKC
     FM310200 25008KT P6SM SKC
     FM310500 VRB03KT P6SM FEW007
     FM311700 27010KT P6SM SKC=



000
FTUS46 KMTR 302345
TAFSJC
TAF
KSJC 302345Z 3100/3124 31015G20KT P6SM FEW030
     FM310400 30017KT P6SM FEW030
     FM310800 32005KT P6SM SCT015
     FM311600 15003KT P6SM FEW015
     FM311800 32012KT P6SM SKC=



000
FTUS46 KMTR 302345
TAFLVK
TAF
KLVK 302345Z 3100/3124 28015G20KT P6SM SKC
     FM310300 26010KT P6SM SKC
     FM310500 26005KT P6SM SKC
     FM311000 27004KT P6SM SCT015
     FM311600 VRB03KT P6SM SKC
     FM311800 29012KT P6SM SKC=



000
FTUS46 KMTR 302345
TAFSFO
TAF
KSFO 302345Z 3100/0106 28025G30KT P6SM FEW015
     FM310400 28015G20KT P6SM FEW015
     FM310900 26011KT P6SM SCT015
     FM311700 27008KT P6SM FEW015
     FM312100 29015G25KT P6SM SKC
     FM010400 29011KT P6SM FEW012=



000
FTUS46 KMTR 302345
TAFSNS
TAF
KSNS 302345Z 3100/3124 26015G20KT P6SM SKC
     FM310200 25010KT P6SM SKC
     FM310500 26010KT P6SM FEW009
     FM311700 27011KT P6SM SKC
     FM311900 29014KT P6SM SKC=



000
FTUS46 KMTR 302345
TAFSTS
TAF
KSTS 302345Z 3100/3124 34014G19KT P6SM FEW030
     FM310200 32009KT P6SM FEW030
     FM310400 VRB03KT P6SM SKC
     FM311400 00000KT 6SM BR SCT001
     FM311730 24007KT P6SM SKC=



000
FTUS46 KMTR 302345
TAFSTS
TAF
KSTS 302345Z 3100/3124 34014G19KT P6SM FEW030
     FM310200 32009KT P6SM FEW030
     FM310400 VRB03KT P6SM SKC
     FM311400 00000KT 6SM BR SCT001
     FM311730 24007KT P6SM SKC=



000
FTUS46 KMTR 302345
TAFOAK
TAF
KOAK 302345Z 3100/0106 27014KT P6SM FEW012
     FM310700 28007KT P6SM SCT015
     FM311900 26015G25KT P6SM FEW020
     FM010300 28015KT P6SM FEW020=



000
FTUS46 KMTR 302345
TAFLVK
TAF
KLVK 302345Z 3100/3124 28015G20KT P6SM SKC
     FM310300 26010KT P6SM SKC
     FM310500 26005KT P6SM SKC
     FM311000 27004KT P6SM SCT015
     FM311600 VRB03KT P6SM SKC
     FM311800 29012KT P6SM SKC=



000
FTUS46 KMTR 302345
TAFSJC
TAF
KSJC 302345Z 3100/3124 31015G20KT P6SM FEW030
     FM310400 30017KT P6SM FEW030
     FM310800 32005KT P6SM SCT015
     FM311600 15003KT P6SM FEW015
     FM311800 32012KT P6SM SKC=



000
FTUS46 KMTR 302345
TAFSFO
TAF
KSFO 302345Z 3100/0106 28025G30KT P6SM FEW015
     FM310400 28015G20KT P6SM FEW015
     FM310900 26011KT P6SM SCT015
     FM311700 27008KT P6SM FEW015
     FM312100 29015G25KT P6SM SKC
     FM010400 29011KT P6SM FEW012=



000
FTUS46 KMTR 302345
TAFSNS
TAF
KSNS 302345Z 3100/3124 26015G20KT P6SM SKC
     FM310200 25010KT P6SM SKC
     FM310500 26010KT P6SM FEW009
     FM311700 27011KT P6SM SKC
     FM311900 29014KT P6SM SKC=



000
FTUS46 KMTR 302345
TAFMRY
TAF
KMRY 302345Z 3100/3124 29010G22KT P6SM SKC
     FM310200 25008KT P6SM SKC
     FM310500 VRB03KT P6SM FEW007
     FM311700 27010KT P6SM SKC=



000
FTUS46 KMTR 302315 AAA
TAFSTS
TAF AMD
KSTS 302315Z 3023/3118 34014G19KT P6SM FEW030
     FM310200 32009KT P6SM FEW030
     FM310400 VRB03KT P6SM SKC
     FM311400 00000KT 6SM BR SCT001
     FM311730 24007KT P6SM SKC=



000
FTUS46 KMTR 302315 AAA
TAFSTS
TAF AMD
KSTS 302315Z 3023/3118 34014G19KT P6SM FEW030
     FM310200 32009KT P6SM FEW030
     FM310400 VRB03KT P6SM SKC
     FM311400 00000KT 6SM BR SCT001
     FM311730 24007KT P6SM SKC=



000
FTUS46 KMTR 302102 AAA
TAFSNS
TAF AMD
KSNS 302102Z 3021/3118 26015G20KT P6SM SKC
     FM310200 25010KT P6SM SKC
     FM310500 26010KT P6SM OVC015
     FM311100 26008KT P6SM OVC007
     FM311700 27006KT P6SM SKC=



000
FTUS46 KMTR 302101 AAA
TAFSFO
TAF AMD
KSFO 302101Z 3021/3124 28025G30KT P6SM FEW015
     FM310400 28015KT P6SM FEW015
     FM310900 26008KT P6SM BKN015
     FM311700 27008KT P6SM FEW015
     FM312100 29015KT P6SM FEW015=



000
FTUS46 KMTR 302101 AAA
TAFSFO
TAF AMD
KSFO 302101Z 3021/3124 28025G30KT P6SM FEW015
     FM310400 28015KT P6SM FEW015
     FM310900 26008KT P6SM BKN015
     FM311700 27008KT P6SM FEW015
     FM312100 29015KT P6SM FEW015=



000
FTUS46 KMTR 301737
TAFOAK
TAF
KOAK 301737Z 3018/3124 27010KT P6SM FEW010 BKN250
     FM302100 27014KT P6SM SKC
     FM310300 28012KT P6SM FEW020
     FM310700 28007KT P6SM BKN015
     FM311000 26005KT P6SM OVC012
     FM311900 23005KT P6SM SCT020=



000
FTUS46 KMTR 301737
TAFSFO
TAF
KSFO 301737Z 3018/3124 28012KT P6SM FEW010
     FM302000 28015KT P6SM FEW010
     FM302300 27020G25KT P6SM SKC
     FM310400 28015KT P6SM FEW015
     FM310900 26008KT P6SM BKN015
     FM311700 27008KT P6SM FEW015
     FM312100 29015KT P6SM FEW015=



000
FTUS46 KMTR 301737
TAFMRY
TAF
KMRY 301737Z 3018/3118 31005KT P6SM SKC
     FM302200 29010G22KT P6SM SKC
     FM310200 25008KT P6SM SKC
     FM310500 VRB03KT P6SM OVC015
     FM311100 22004KT P6SM OVC007
     FM311700 27006KT P6SM SKC=



000
FTUS46 KMTR 301737
TAFSJC
TAF
KSJC 301737Z 3018/3118 30004KT P6SM FEW025 SCT250
     FM302000 31010KT P6SM SCT250
     FM302200 31015G20KT P6SM SKC
     FM310300 30010KT P6SM SKC
     FM310800 32005KT P6SM OVC015
     FM311600 15003KT P6SM FEW015=



000
FTUS46 KMTR 301737
TAFSTS
TAF
KSTS 301737Z 3018/3118 14004KT P6SM FEW200
     FM301900 22009KT P6SM SKC
     FM302100 25010KT P6SM SKC
     FM310600 VRB03KT P6SM SKC
     FM311400 00000KT 2SM BR BKN001=



000
FTUS46 KMTR 301737
TAFSNS
TAF
KSNS 301737Z 3018/3118 29006KT P6SM SKC
     FM302000 28012G18KT P6SM SKC
     FM310200 25010KT P6SM SKC
     FM310500 26010KT P6SM OVC015
     FM311100 26008KT P6SM OVC007
     FM311700 27006KT P6SM SKC=



000
FTUS46 KMTR 301737
TAFLVK
TAF
KLVK 301737Z 3018/3118 26006KT P6SM SKC
     FM302100 28015G20KT P6SM SKC
     FM310300 26010KT P6SM SKC
     FM310500 26005KT P6SM SKC
     FM311000 27004KT P6SM OVC015
     FM311600 VRB03KT P6SM FEW015=



000
FTUS46 KMTR 301615 AAB
TAFSJC
TAF AMD
KSJC 301615Z 3016/3112 30004KT P6SM FEW015 SCT025 BKN250
     FM301900 31010KT P6SM SKC
     FM302200 31015G20KT P6SM SKC
     FM310300 30010KT P6SM SKC
     FM310700 32005KT P6SM SKC=



000
FTUS46 KMTR 301615 AAB
TAFSJC
TAF AMD
KSJC 301615Z 3016/3112 30004KT P6SM FEW015 SCT025 BKN250
     FM301900 31010KT P6SM SKC
     FM302200 31015G20KT P6SM SKC
     FM310300 30010KT P6SM SKC
     FM310700 32005KT P6SM SKC=



000
FTUS46 KMTR 301612 AAB
TAFSTS
TAF AMD
KSTS 301612Z 3016/3112 VRB03KT P6SM FEW007
     FM301900 22009KT P6SM SKC
     FM302100 25010KT P6SM SKC
     FM310600 VRB03KT P6SM SKC=



000
FTUS46 KMTR 301519 AAA
TAFSFO
TAF AMD
KSFO 301519Z 3015/3118 27012KT P6SM FEW008 BKN012
     FM301630 27012KT P6SM FEW015
     FM301900 28015KT P6SM SKC
     FM302300 27020G25KT P6SM SKC
     FM310400 28015KT P6SM FEW015
     FM311200 28006KT P6SM BKN015=



000
FTUS46 KMTR 301511 AAA
TAFLVK
TAF AMD
KLVK 301511Z 3015/3112 24005KT P6SM FEW020
     FM301800 26006KT P6SM SKC
     FM302100 28015KT P6SM SKC
     FM310500 28009KT P6SM SKC=



000
FTUS46 KMTR 301511 AAA
TAFLVK
TAF AMD
KLVK 301511Z 3015/3112 24005KT P6SM FEW020
     FM301800 26006KT P6SM SKC
     FM302100 28015KT P6SM SKC
     FM310500 28009KT P6SM SKC=



000
FTUS46 KMTR 301509 AAA
TAFSJC
TAF AMD
KSJC 301509Z 3015/3112 24004KT P6SM FEW015 BKN025 BKN250
     FM301700 31005KT P6SM SCT025 BKN250
     FM301900 31010KT P6SM SKC
     FM310300 30005KT P6SM SKC=



000
FTUS46 KMTR 301503 AAA
TAFOAK
TAF AMD
KOAK 301503Z 3015/3118 27010KT P6SM FEW010 BKN250
      TEMPO 3015/3016 BKN012
     FM302100 27014KT P6SM SKC
     FM310300 28012KT P6SM FEW020
     FM310900 28007KT P6SM SCT015
     FM311100 28005KT P6SM BKN015=



000
FTUS46 KMTR 301459 AAA
TAFSTS
TAF AMD
KSTS 301459Z 3015/3112 VRB03KT P6SM FEW007
      TEMPO 3015/3017 2SM BR BKN001
     FM301700 19009KT P6SM SKC
     FM310300 VRB03KT P6SM SKC=



000
FTUS46 KMTR 301327 AAA
TAFMRY
TAF AMD
KMRY 301327Z 3013/3112 23005KT P6SM FEW007
     FM301900 29008KT P6SM SKC
     FM310200 29004KT P6SM SKC
     FM310800 VRB03KT P6SM BKN007=



000
FTUS46 KMTR 301120
TAFLVK
TAF
KLVK 301120Z 3012/3112 26006KT P6SM BKN020
     FM301600 28006KT P6SM SCT020
     FM301800 28006KT P6SM SKC
     FM302100 28015KT P6SM SKC
     FM310500 28009KT P6SM SKC=



000
FTUS46 KMTR 301120
TAFMRY
TAF
KMRY 301120Z 3012/3112 23005KT P6SM BKN007
     FM301500 VRB04KT P6SM SCT010
     FM301700 29007KT P6SM SKC
     FM310200 29004KT P6SM SKC
     FM310800 VRB03KT P6SM BKN007=



000
FTUS46 KMTR 301120
TAFSJC
TAF
KSJC 301120Z 3012/3112 VRB03KT P6SM BKN015
     FM301700 31005KT P6SM SCT020
     FM301900 31010KT P6SM SKC
     FM310300 30005KT P6SM SKC=



000
FTUS46 KMTR 301120
TAFLVK
TAF
KLVK 301120Z 3012/3112 26006KT P6SM BKN020
     FM301600 28006KT P6SM SCT020
     FM301800 28006KT P6SM SKC
     FM302100 28015KT P6SM SKC
     FM310500 28009KT P6SM SKC=



000
FTUS46 KMTR 301120
TAFSFO
TAF
KSFO 301120Z 3012/3118 27006KT P6SM BKN012
     FM301700 28005KT P6SM SCT015
     FM301900 28009KT P6SM SKC
     FM302100 29015KT P6SM SKC
     FM310400 28009KT P6SM FEW015
     FM311200 28006KT P6SM BKN015=



000
FTUS46 KMTR 301120
TAFMRY
TAF
KMRY 301120Z 3012/3112 23005KT P6SM BKN007
     FM301500 VRB04KT P6SM SCT010
     FM301700 29007KT P6SM SKC
     FM310200 29004KT P6SM SKC
     FM310800 VRB03KT P6SM BKN007=



000
FTUS46 KMTR 301120
TAFSJC
TAF
KSJC 301120Z 3012/3112 VRB03KT P6SM BKN015
     FM301700 31005KT P6SM SCT020
     FM301900 31010KT P6SM SKC
     FM310300 30005KT P6SM SKC=



000
FTUS46 KMTR 301120
TAFSFO
TAF
KSFO 301120Z 3012/3118 27006KT P6SM BKN012
     FM301700 28005KT P6SM SCT015
     FM301900 28009KT P6SM SKC
     FM302100 29015KT P6SM SKC
     FM310400 28009KT P6SM FEW015
     FM311200 28006KT P6SM BKN015=



000
FTUS46 KMTR 301120
TAFSNS
TAF
KSNS 301120Z 3012/3112 28005KT P6SM SCT008
      TEMPO 3012/3016 BKN008
     FM301600 VRB04KT P6SM SKC
     FM301700 29011KT P6SM SKC
     FM310300 29008KT P6SM SKC=



000
FTUS46 KMTR 301120
TAFOAK
TAF
KOAK 301120Z 3012/3118 27006KT P6SM BKN012
     FM301700 25008KT P6SM SCT015
     FM301900 25008KT P6SM SKC
     FM302100 27014KT P6SM SKC
     FM310300 28012KT P6SM FEW020
     FM310900 28007KT P6SM SCT015
     FM311100 28005KT P6SM BKN015=



000
FTUS46 KMTR 301120
TAFSTS
TAF
KSTS 301120Z 3012/3112 VRB03KT P6SM FEW007
     FM301700 19009KT P6SM SKC
     FM310300 VRB03KT P6SM SKC=



000
FTUS46 KMTR 301120
TAFSNS
TAF
KSNS 301120Z 3012/3112 28005KT P6SM SCT008
      TEMPO 3012/3016 BKN008
     FM301600 VRB04KT P6SM SKC
     FM301700 29011KT P6SM SKC
     FM310300 29008KT P6SM SKC=



000
FTUS46 KMTR 301120
TAFOAK
TAF
KOAK 301120Z 3012/3118 27006KT P6SM BKN012
     FM301700 25008KT P6SM SCT015
     FM301900 25008KT P6SM SKC
     FM302100 27014KT P6SM SKC
     FM310300 28012KT P6SM FEW020
     FM310900 28007KT P6SM SCT015
     FM311100 28005KT P6SM BKN015=



000
FTUS46 KMTR 301120
TAFSTS
TAF
KSTS 301120Z 3012/3112 VRB03KT P6SM FEW007
     FM301700 19009KT P6SM SKC
     FM310300 VRB03KT P6SM SKC=



000
FTUS46 KMTR 300854 AAA
TAFSFO
TAF AMD
KSFO 300854Z 3009/3112 27006KT P6SM BKN012
     FM301700 28010KT P6SM SCT012
     FM302100 29020G28KT P6SM FEW020
     FM310400 28017KT P6SM FEW015=



000
FTUS46 KMTR 300854 AAA
TAFSFO
TAF AMD
KSFO 300854Z 3009/3112 27006KT P6SM BKN012
     FM301700 28010KT P6SM SCT012
     FM302100 29020G28KT P6SM FEW020
     FM310400 28017KT P6SM FEW015=



000
FTUS46 KMTR 300539
TAFOAK
TAF
KOAK 300539Z 3006/3112 28012KT P6SM FEW012
     FM300800 27006KT P6SM SCT010
     FM301800 25008KT P6SM FEW015
     FM302100 27016G21KT P6SM FEW030
     FM310300 28012KT P6SM FEW020=



000
FTUS46 KMTR 300539
TAFSNS
TAF
KSNS 300539Z 3006/3106 28008KT P6SM FEW040
     FM300900 28005KT P6SM SCT009
     FM301600 VRB04KT P6SM FEW009
     FM301700 29011KT P6SM SKC
     FM310300 29009KT P6SM FEW009=



000
FTUS46 KMTR 300539
TAFOAK
TAF
KOAK 300539Z 3006/3112 28012KT P6SM FEW012
     FM300800 27006KT P6SM SCT010
     FM301800 25008KT P6SM FEW015
     FM302100 27016G21KT P6SM FEW030
     FM310300 28012KT P6SM FEW020=



000
FTUS46 KMTR 300539
TAFSNS
TAF
KSNS 300539Z 3006/3106 28008KT P6SM FEW040
     FM300900 28005KT P6SM SCT009
     FM301600 VRB04KT P6SM FEW009
     FM301700 29011KT P6SM SKC
     FM310300 29009KT P6SM FEW009=



000
FTUS46 KMTR 300539
TAFSJC
TAF
KSJC 300539Z 3006/3106 31010KT P6SM SKC
     FM300800 VRB03KT P6SM FEW015
     FM301800 31012KT P6SM FEW030
     FM310300 30009KT P6SM FEW020=



000
FTUS46 KMTR 300539
TAFSTS
TAF
KSTS 300539Z 3006/3106 26007KT P6SM SKC
     FM300800 VRB03KT P6SM FEW007
     FM301700 19009KT P6SM SKC
     FM310300 VRB03KT P6SM SKC=



000
FTUS46 KMTR 300539
TAFSFO
TAF
KSFO 300539Z 3006/3112 27016KT P6SM SCT012
      TEMPO 3007/3011 BKN012
     FM301100 28008KT P6SM BKN012
     FM301700 28011KT P6SM FEW012
     FM302100 29020G28KT P6SM FEW020
     FM310400 28017KT P6SM FEW015=



000
FTUS46 KMTR 300539
TAFMRY
TAF
KMRY 300539Z 3006/3106 23005KT P6SM FEW250
      TEMPO 3009/3013 BKN009
     FM301300 VRB04KT P6SM FEW008
     FM301700 29007KT P6SM SKC
     FM310200 29004KT P6SM FEW009=



000
FTUS46 KMTR 300539
TAFLVK
TAF
KLVK 300539Z 3006/3106 26010KT P6SM FEW020
     FM300900 26008KT P6SM FEW015
     FM301800 28012KT P6SM FEW030
     FM310300 28009KT P6SM FEW020=



000
FTUS46 KMTR 300539
TAFSFO
TAF
KSFO 300539Z 3006/3112 27016KT P6SM SCT012
      TEMPO 3007/3011 BKN012
     FM301100 28008KT P6SM BKN012
     FM301700 28011KT P6SM FEW012
     FM302100 29020G28KT P6SM FEW020
     FM310400 28017KT P6SM FEW015=



000
FTUS46 KMTR 300539
TAFSTS
TAF
KSTS 300539Z 3006/3106 26007KT P6SM SKC
     FM300800 VRB03KT P6SM FEW007
     FM301700 19009KT P6SM SKC
     FM310300 VRB03KT P6SM SKC=



000
FTUS46 KMTR 300539
TAFLVK
TAF
KLVK 300539Z 3006/3106 26010KT P6SM FEW020
     FM300900 26008KT P6SM FEW015
     FM301800 28012KT P6SM FEW030
     FM310300 28009KT P6SM FEW020=



000
FTUS46 KMTR 300539
TAFSJC
TAF
KSJC 300539Z 3006/3106 31010KT P6SM SKC
     FM300800 VRB03KT P6SM FEW015
     FM301800 31012KT P6SM FEW030
     FM310300 30009KT P6SM FEW020=



000
FTUS46 KMTR 300341 AAA
TAFSFO
TAF AMD
KSFO 300341Z 3004/3106 27016KT P6SM SKC
     FM300700 28009KT P6SM FEW012
      TEMPO 3007/3011 SCT012
     FM301100 28008KT P6SM BKN012
     FM301700 28011KT P6SM FEW012
     FM302100 29020G28KT P6SM FEW020
     FM310400 28017KT P6SM FEW015=



000
FTUS46 KMTR 292348
TAFSFO
TAF
KSFO 292348Z 3000/3106 28016G22KT P6SM FEW015 SCT040 BKN250
     FM300400 27016KT P6SM FEW015
     FM300700 28009KT P6SM SCT012
      TEMPO 3007/3011 BKN012
     FM301100 28008KT P6SM BKN012
     FM301700 28011KT P6SM FEW012
     FM302100 29020G28KT P6SM FEW020
     FM310400 28017KT P6SM FEW015=



000
FTUS46 KMTR 292348
TAFSNS
TAF
KSNS 292348Z 3000/3024 28017KT P6SM FEW040 SCT250
     FM300400 28008KT P6SM FEW040
     FM300900 28005KT P6SM SCT009
     FM301600 VRB04KT P6SM FEW009
     FM301700 29011KT P6SM SKC=



000
FTUS46 KMTR 292348
TAFOAK
TAF
KOAK 292348Z 3000/3106 28015G21KT P6SM FEW030 SCT250
     FM300400 28012KT P6SM SCT012
     FM300800 27006KT P6SM SCT010
     FM301800 25008KT P6SM FEW015
     FM302100 27016G21KT P6SM FEW030
     FM310300 28012KT P6SM FEW020=



000
FTUS46 KMTR 292348
TAFSJC
TAF
KSJC 292348Z 3000/3024 30015G20KT P6SM FEW050 SCT250
     FM300500 31010KT P6SM SKC
     FM300800 VRB03KT P6SM FEW015
     FM301800 31012KT P6SM FEW030=



000
FTUS46 KMTR 292348
TAFMRY
TAF
KMRY 292348Z 3000/3024 27009G15KT P6SM FEW030 SCT250
     FM300400 23005KT P6SM FEW250
      TEMPO 3009/3013 BKN009
     FM301300 VRB04KT P6SM FEW008
     FM301700 29007KT P6SM SKC=



000
FTUS46 KMTR 292348
TAFLVK
TAF
KLVK 292348Z 3000/3024 27013G18KT P6SM FEW030 SCT250
     FM300400 26010KT P6SM FEW020
     FM300900 26008KT P6SM FEW015
     FM301800 28012KT P6SM FEW030=



000
FTUS46 KMTR 292348
TAFSTS
TAF
KSTS 292348Z 3000/3024 24014G20KT P6SM FEW250
     FM300300 26007KT P6SM SKC
     FM300600 VRB03KT P6SM FEW007
     FM301700 19009KT P6SM SKC=



000
FTUS46 KMTR 292100 AAA
TAFSFO
TAF AMD
KSFO 292100Z 2921/3024 28011KT P6SM FEW012 SCT030 BKN200
     FM292300 28016G24KT P6SM FEW012 SCT250
     FM300400 27011KT P6SM FEW012 FEW250
     FM300600 27009KT P6SM BKN012
     FM301000 27008KT P6SM OVC010
     FM301730 27011KT P6SM FEW010
     FM302100 27020G28KT P6SM FEW012=



000
FTUS46 KMTR 291736
TAFSJC
TAF
KSJC 291736Z 2918/3018 30006KT P6SM FEW015 SCT030 SCT250
     FM292100 32012G18KT P6SM SCT035 SCT250
     FM292300 30015G20KT P6SM FEW050 FEW250
     FM300500 31010KT P6SM FEW250
     FM300800 VRB03KT P6SM BKN015
     FM301700 VRB04KT P6SM FEW015 FEW250=



000
FTUS46 KMTR 291736
TAFLVK
TAF
KLVK 291736Z 2918/3018 25007KT P6SM BKN020
     FM291900 25010KT P6SM SCT025
     FM292100 27013G18KT P6SM FEW040 FEW250
     FM300400 26010KT P6SM FEW250
     FM300900 26008KT P6SM BKN015
     FM301600 28006KT P6SM FEW018=



000
FTUS46 KMTR 291736
TAFSNS
TAF
KSNS 291736Z 2918/3018 28006KT P6SM FEW250
     FM292100 28011G16KT P6SM BKN250
     FM300400 28008KT P6SM SCT250
     FM300900 28005KT P6SM BKN010
     FM301200 VRB03KT P6SM OVC007
     FM301600 VRB04KT P6SM FEW008=



000
FTUS46 KMTR 291736
TAFSFO
TAF
KSFO 291736Z 2918/3024 VRB06KT P6SM FEW008 SCT024 BKN035
      TEMPO 2918/2920 FEW007 BKN020 BKN030
     FM292100 27011KT P6SM FEW010 FEW030 FEW250
     FM292300 27016G24KT P6SM FEW012 FEW250
     FM300400 27011KT P6SM FEW012 FEW250
     FM300600 27009KT P6SM BKN012
     FM301730 27011KT P6SM FEW010
     FM302100 27020G28KT P6SM FEW012=



000
FTUS46 KMTR 291736
TAFOAK
TAF
KOAK 291736Z 2918/3024 26010KT P6SM FEW008 SCT014 BKN020
     FM292000 28012KT P6SM FEW010 SCT030
     FM292200 28015G21KT P6SM FEW010 FEW250
     FM300500 28010KT P6SM BKN012
     FM301000 27006KT P6SM OVC010
     FM301800 25008KT P6SM FEW010 SCT015
     FM302100 27016KT P6SM FEW012=



000
FTUS46 KMTR 291736
TAFMRY
TAF
KMRY 291736Z 2918/3018 28008KT P6SM FEW030 SCT250
     FM292100 28009G15KT P6SM FEW030 BKN250
     FM300400 23005KT P6SM FEW012 SCT250
     FM300900 VRB03KT P6SM BKN010
     FM301200 VRB02KT P6SM OVC007
     FM301600 VRB04KT P6SM FEW008=



000
FTUS46 KMTR 291736
TAFSTS
TAF
KSTS 291736Z 2918/3018 24005KT P6SM SCT015 BKN025
     FM291930 26010KT P6SM FEW020 SCT040
     FM292300 26012G20KT P6SM FEW250
     FM300300 26010KT P6SM SKC
     FM300600 26008KT P6SM BKN010
     FM300800 VRB03KT P6SM OVC006
     FM301700 VRB04KT P6SM FEW008=



000
FTUS46 KMTR 291736
TAFSTS
TAF
KSTS 291736Z 2918/3018 24005KT P6SM SCT015 BKN025
     FM291930 26010KT P6SM FEW020 SCT040
     FM292300 26012G20KT P6SM FEW250
     FM300300 26010KT P6SM SKC
     FM300600 26008KT P6SM BKN010
     FM300800 VRB03KT P6SM OVC006
     FM301700 VRB04KT P6SM FEW008=



000
FTUS46 KMTR 291736
TAFSFO
TAF
KSFO 291736Z 2918/3024 VRB06KT P6SM FEW008 SCT024 BKN035
      TEMPO 2918/2920 FEW007 BKN020 BKN030
     FM292100 27011KT P6SM FEW010 FEW030 FEW250
     FM292300 27016G24KT P6SM FEW012 FEW250
     FM300400 27011KT P6SM FEW012 FEW250
     FM300600 27009KT P6SM BKN012
     FM301730 27011KT P6SM FEW010
     FM302100 27020G28KT P6SM FEW012=



000
FTUS46 KMTR 291736
TAFSJC
TAF
KSJC 291736Z 2918/3018 30006KT P6SM FEW015 SCT030 SCT250
     FM292100 32012G18KT P6SM SCT035 SCT250
     FM292300 30015G20KT P6SM FEW050 FEW250
     FM300500 31010KT P6SM FEW250
     FM300800 VRB03KT P6SM BKN015
     FM301700 VRB04KT P6SM FEW015 FEW250=



000
FTUS46 KMTR 291736
TAFLVK
TAF
KLVK 291736Z 2918/3018 25007KT P6SM BKN020
     FM291900 25010KT P6SM SCT025
     FM292100 27013G18KT P6SM FEW040 FEW250
     FM300400 26010KT P6SM FEW250
     FM300900 26008KT P6SM BKN015
     FM301600 28006KT P6SM FEW018=



000
FTUS46 KMTR 291736
TAFMRY
TAF
KMRY 291736Z 2918/3018 28008KT P6SM FEW030 SCT250
     FM292100 28009G15KT P6SM FEW030 BKN250
     FM300400 23005KT P6SM FEW012 SCT250
     FM300900 VRB03KT P6SM BKN010
     FM301200 VRB02KT P6SM OVC007
     FM301600 VRB04KT P6SM FEW008=



000
FTUS46 KMTR 291736
TAFSNS
TAF
KSNS 291736Z 2918/3018 28006KT P6SM FEW250
     FM292100 28011G16KT P6SM BKN250
     FM300400 28008KT P6SM SCT250
     FM300900 28005KT P6SM BKN010
     FM301200 VRB03KT P6SM OVC007
     FM301600 VRB04KT P6SM FEW008=



000
FTUS46 KMTR 291736
TAFOAK
TAF
KOAK 291736Z 2918/3024 26010KT P6SM FEW008 SCT014 BKN020
     FM292000 28012KT P6SM FEW010 SCT030
     FM292200 28015G21KT P6SM FEW010 FEW250
     FM300500 28010KT P6SM BKN012
     FM301000 27006KT P6SM OVC010
     FM301800 25008KT P6SM FEW010 SCT015
     FM302100 27016KT P6SM FEW012=



000
FTUS46 KMTR 291601 AAB
TAFSFO
TAF AMD
KSFO 291601Z 2916/3018 VRB06KT P6SM FEW010 SCT015 SCT020
      TEMPO 2916/2918 FEW008 BKN012 BKN016
     FM292100 27016KT P6SM FEW030 SCT200
     FM292300 27020G28KT P6SM SCT250
     FM300400 27015KT P6SM SCT250
     FM301000 27010KT P6SM SKC=



000
FTUS46 KMTR 291512 CCA
TAFSFO
TAF COR
KSFO 291512Z 2915/3018 VRB05KT P6SM FEW008 BKN012 OVC015
     FM291600 29008KT P6SM FEW010 SCT015 SCT020
      TEMPO 2916/2917 FEW010 BKN016
     FM292100 27016KT P6SM FEW030 SCT200
     FM292300 27020G28KT P6SM SCT250
     FM300400 27015KT P6SM SCT250
     FM301000 27010KT P6SM SKC=



000
FTUS46 KMTR 291511 AAA
TAFSFO
TAF AMD
KSFO 291511Z 2915/3018 VRB05KT P6SM FEW008 BKN012 OVC015
     FM291600 28010KT P6SM FEW010 SCT015 SCT020
      TEMPO 2916/2917 FEW010 BKN016
     FM292100 27016KT P6SM FEW030 SCT200
     FM292300 27020G28KT P6SM SCT250
     FM300400 27015KT P6SM SCT250
     FM301000 27010KT P6SM SKC=



000
FTUS46 KMTR 291511 AAA
TAFSFO
TAF AMD
KSFO 291511Z 2915/3018 VRB05KT P6SM FEW008 BKN012 OVC015
     FM291600 28010KT P6SM FEW010 SCT015 SCT020
      TEMPO 2916/2917 FEW010 BKN016
     FM292100 27016KT P6SM FEW030 SCT200
     FM292300 27020G28KT P6SM SCT250
     FM300400 27015KT P6SM SCT250
     FM301000 27010KT P6SM SKC=



000
FTUS46 KMTR 291415 AAA
TAFSNS
TAF AMD
KSNS 291415Z 2914/3012 VRB05KT P6SM FEW008 SCT020
     FM291800 28006KT P6SM FEW015 SCT025
     FM292100 28010G15KT P6SM BKN250
     FM300400 28008KT P6SM SCT250
     FM300600 28006KT P6SM BKN008
     FM300800 28005KT P6SM OVC006=



000
FTUS46 KMTR 291354 AAA
TAFSTS
TAF AMD
KSTS 291354Z 2914/3012 14004KT 6SM BR OVC015
      TEMPO 2914/2916 -RA OVC005
     FM291700 24005KT P6SM SCT015 BKN025
     FM291900 26010KT P6SM SCT040 BKN250
     FM292300 26013G20KT P6SM SCT250
     FM300300 26010KT P6SM SKC
     FM300800 26005KT P6SM SKC=



000
FTUS46 KMTR 291354 AAA
TAFSTS
TAF AMD
KSTS 291354Z 2914/3012 14004KT 6SM BR OVC015
      TEMPO 2914/2916 -RA OVC005
     FM291700 24005KT P6SM SCT015 BKN025
     FM291900 26010KT P6SM SCT040 BKN250
     FM292300 26013G20KT P6SM SCT250
     FM300300 26010KT P6SM SKC
     FM300800 26005KT P6SM SKC=



000
FTUS46 KMTR 291120
TAFMRY
TAF
KMRY 291120Z 2912/3012 00000KT 3SM BR BKN008
     FM291500 VRB03KT P6SM BKN020
     FM291800 28008KT P6SM FEW015 SCT025
     FM292100 28010G15KT P6SM BKN250
     FM300200 24008KT P6SM SCT250
     FM300400 23005KT P6SM BKN008
     FM300700 VRB03KT P6SM OVC005=



000
FTUS46 KMTR 291120
TAFLVK
TAF
KLVK 291120Z 2912/3012 26010KT P6SM SKC
     FM291500 25007KT P6SM BKN020
     FM291900 25010KT P6SM SCT025
     FM292100 27015G20KT P6SM FEW040
     FM300400 26010G15KT P6SM SKC
     FM300900 26008KT P6SM SKC=



000
FTUS46 KMTR 291120
TAFSNS
TAF
KSNS 291120Z 2912/3012 32008KT 2SM BR OVC003
     FM291500 25004KT P6SM SCT005 BKN020
     FM291800 28006KT P6SM FEW015 SCT025
     FM292100 28010G15KT P6SM BKN250
     FM300400 28008KT P6SM SCT250
     FM300600 28006KT P6SM BKN008
     FM300800 28005KT P6SM OVC006=



000
FTUS46 KMTR 291120
TAFSTS
TAF
KSTS 291120Z 2912/3012 14004KT 6SM BR OVC015
     FM291600 24005KT P6SM SCT015 BKN025
     FM291900 26010KT P6SM SCT040 BKN250
     FM292300 26013G20KT P6SM SCT250
     FM300300 26010KT P6SM SKC
     FM300800 26005KT P6SM SKC=



000
FTUS46 KMTR 291120
TAFSFO
TAF
KSFO 291120Z 2912/3018 25008KT P6SM SCT015 BKN200
     FM291400 26010KT P6SM BKN020
     FM291800 28010KT P6SM BKN030
     FM292100 27016KT P6SM FEW030 SCT200
     FM292300 27020G28KT P6SM SCT250
     FM300400 27015KT P6SM SCT250
     FM301000 27010KT P6SM SKC=



000
FTUS46 KMTR 291120
TAFSFO
TAF
KSFO 291120Z 2912/3018 25008KT P6SM SCT015 BKN200
     FM291400 26010KT P6SM BKN020
     FM291800 28010KT P6SM BKN030
     FM292100 27016KT P6SM FEW030 SCT200
     FM292300 27020G28KT P6SM SCT250
     FM300400 27015KT P6SM SCT250
     FM301000 27010KT P6SM SKC=



000
FTUS46 KMTR 291120
TAFMRY
TAF
KMRY 291120Z 2912/3012 00000KT 3SM BR BKN008
     FM291500 VRB03KT P6SM BKN020
     FM291800 28008KT P6SM FEW015 SCT025
     FM292100 28010G15KT P6SM BKN250
     FM300200 24008KT P6SM SCT250
     FM300400 23005KT P6SM BKN008
     FM300700 VRB03KT P6SM OVC005=



000
FTUS46 KMTR 291120
TAFLVK
TAF
KLVK 291120Z 2912/3012 26010KT P6SM SKC
     FM291500 25007KT P6SM BKN020
     FM291900 25010KT P6SM SCT025
     FM292100 27015G20KT P6SM FEW040
     FM300400 26010G15KT P6SM SKC
     FM300900 26008KT P6SM SKC=



000
FTUS46 KMTR 291120
TAFOAK
TAF
KOAK 291120Z 2912/3018 29008KT P6SM SCT010
      TEMPO 2912/2915 BKN010
     FM291500 24008KT P6SM BKN015
     FM291800 26010KT P6SM BKN025
     FM292000 28012KT P6SM SCT030
     FM292200 28015G21KT P6SM BKN250
     FM300500 28010KT P6SM SCT250=



000
FTUS46 KMTR 291120
TAFSJC
TAF
KSJC 291120Z 2912/3012 31003KT P6SM SCT015
      TEMPO 2912/2915 BKN015
     FM291500 VRB03KT P6SM BKN025
     FM291700 30006KT P6SM BKN030 BKN100
     FM292100 32012G18KT P6SM SCT035 BKN250
     FM292300 30015G20KT P6SM FEW050 BKN250
     FM300500 31010KT P6SM FEW250=



000
FTUS46 KMTR 291120
TAFSNS
TAF
KSNS 291120Z 2912/3012 32008KT 2SM BR OVC003
     FM291500 25004KT P6SM SCT005 BKN020
     FM291800 28006KT P6SM FEW015 SCT025
     FM292100 28010G15KT P6SM BKN250
     FM300400 28008KT P6SM SCT250
     FM300600 28006KT P6SM BKN008
     FM300800 28005KT P6SM OVC006=



000
FTUS46 KMTR 291120
TAFSJC
TAF
KSJC 291120Z 2912/3012 31003KT P6SM SCT015
      TEMPO 2912/2915 BKN015
     FM291500 VRB03KT P6SM BKN025
     FM291700 30006KT P6SM BKN030 BKN100
     FM292100 32012G18KT P6SM SCT035 BKN250
     FM292300 30015G20KT P6SM FEW050 BKN250
     FM300500 31010KT P6SM FEW250=



000
FTUS46 KMTR 291120
TAFOAK
TAF
KOAK 291120Z 2912/3018 29008KT P6SM SCT010
      TEMPO 2912/2915 BKN010
     FM291500 24008KT P6SM BKN015
     FM291800 26010KT P6SM BKN025
     FM292000 28012KT P6SM SCT030
     FM292200 28015G21KT P6SM BKN250
     FM300500 28010KT P6SM SCT250=



000
FTUS46 KMTR 291120
TAFSTS
TAF
KSTS 291120Z 2912/3012 14004KT 6SM BR OVC015
     FM291600 24005KT P6SM SCT015 BKN025
     FM291900 26010KT P6SM SCT040 BKN250
     FM292300 26013G20KT P6SM SCT250
     FM300300 26010KT P6SM SKC
     FM300800 26005KT P6SM SKC=



000
FTUS46 KMTR 291005 AAA
TAFSFO
TAF AMD
KSFO 291005Z 2910/3012 25008KT P6SM SCT005
      TEMPO 2910/2914 BKN005
     FM291400 26010KT P6SM SCT008 BKN025
     FM291800 28010KT P6SM BKN030
     FM292100 27016KT P6SM FEW025 SCT200
     FM292300 27020G25KT P6SM SCT250
     FM300400 27015KT P6SM SCT250=



000
FTUS46 KMTR 290833 AAA
TAFSNS
TAF AMD
KSNS 290833Z 2909/3006 32008KT 4SM BR OVC003
     FM291500 25004KT P6SM SCT005 BKN015
     FM291800 28006KT P6SM FEW015 SCT025
     FM292100 28010G15KT P6SM BKN250=



000
FTUS46 KMTR 290528
TAFOAK
TAF
KOAK 290528Z 2906/3012 29008KT P6SM OVC007
     FM291600 24008KT P6SM BKN008 OVC015
     FM291800 26010KT P6SM SCT020 BKN025 BKN050
     FM292000 28012KT P6SM SCT025
     FM292200 28015G20KT P6SM BKN250
     FM300500 28010KT P6SM SCT250=



000
FTUS46 KMTR 290528
TAFSTS
TAF
KSTS 290528Z 2906/3006 15006KT P6SM OVC200
     FM290900 14004KT 6SM BR OVC006
     FM291500 17004KT P6SM BKN006 BKN025
     FM291800 24005KT P6SM SCT015 BKN025
     FM292000 26010KT P6SM SCT050 BKN250
     FM292300 26015G20KT P6SM SCT250
     FM300300 26010KT P6SM SKC=



000
FTUS46 KMTR 290528
TAFLVK
TAF
KLVK 290528Z 2906/3006 28010KT P6SM SCT200
     FM290800 26010KT P6SM BKN015
     FM291400 25007KT P6SM BKN020
     FM291800 25010KT P6SM SCT025
     FM292100 27015G20KT P6SM SCT050
     FM300400 26010G15KT P6SM SKC=



000
FTUS46 KMTR 290528
TAFMRY
TAF
KMRY 290528Z 2906/3006 00000KT P6SM SCT250
     FM290800 VRB03KT P6SM BKN015
     FM291100 00000KT 6SM BR OVC008
     FM291500 VRB03KT P6SM SCT015 BKN025
     FM291800 28008KT P6SM FEW015 SCT025
     FM292100 28010G15KT P6SM BKN250
     FM300200 24008KT P6SM SCT250
     FM300400 23005KT P6SM BKN008=



000
FTUS46 KMTR 290528
TAFSFO
TAF
KSFO 290528Z 2906/3012 25008KT P6SM FEW005 BKN008 BKN100
     FM291600 26010KT P6SM BKN008 BKN025 BKN050
     FM291800 28010KT P6SM BKN025
     FM292100 27016KT P6SM FEW025 SCT200
     FM292300 27020G25KT P6SM SCT250
     FM300400 27015KT P6SM SCT250=



000
FTUS46 KMTR 290528
TAFSJC
TAF
KSJC 290528Z 2906/3006 28006KT P6SM FEW050 SCT150
     FM290900 31003KT P6SM BKN015 BKN200
     FM291500 VRB03KT P6SM SCT015 BKN025
     FM291700 30006KT P6SM SCT025 BKN050 BKN100
     FM292100 32012G18KT P6SM SCT035 BKN250
     FM292300 30015G20KT P6SM FEW050 BKN250
     FM300500 31010KT P6SM FEW250=



000
FTUS46 KMTR 290528
TAFSNS
TAF
KSNS 290528Z 2906/3006 32008KT P6SM SCT250
     FM290900 31005KT P6SM BKN015
     FM291100 VRB03KT 6SM BR OVC008
     FM291500 25004KT P6SM SCT015 BKN025
     FM291800 28006KT P6SM FEW015 SCT025
     FM292100 28010G15KT P6SM BKN250=



000
FTUS46 KMTR 290528
TAFSTS
TAF
KSTS 290528Z 2906/3006 15006KT P6SM OVC200
     FM290900 14004KT 6SM BR OVC006
     FM291500 17004KT P6SM BKN006 BKN025
     FM291800 24005KT P6SM SCT015 BKN025
     FM292000 26010KT P6SM SCT050 BKN250
     FM292300 26015G20KT P6SM SCT250
     FM300300 26010KT P6SM SKC=



000
FTUS46 KMTR 290528
TAFSJC
TAF
KSJC 290528Z 2906/3006 28006KT P6SM FEW050 SCT150
     FM290900 31003KT P6SM BKN015 BKN200
     FM291500 VRB03KT P6SM SCT015 BKN025
     FM291700 30006KT P6SM SCT025 BKN050 BKN100
     FM292100 32012G18KT P6SM SCT035 BKN250
     FM292300 30015G20KT P6SM FEW050 BKN250
     FM300500 31010KT P6SM FEW250=



000
FTUS46 KMTR 290528
TAFSFO
TAF
KSFO 290528Z 2906/3012 25008KT P6SM FEW005 BKN008 BKN100
     FM291600 26010KT P6SM BKN008 BKN025 BKN050
     FM291800 28010KT P6SM BKN025
     FM292100 27016KT P6SM FEW025 SCT200
     FM292300 27020G25KT P6SM SCT250
     FM300400 27015KT P6SM SCT250=



000
FTUS46 KMTR 290528
TAFLVK
TAF
KLVK 290528Z 2906/3006 28010KT P6SM SCT200
     FM290800 26010KT P6SM BKN015
     FM291400 25007KT P6SM BKN020
     FM291800 25010KT P6SM SCT025
     FM292100 27015G20KT P6SM SCT050
     FM300400 26010G15KT P6SM SKC=



000
FTUS46 KMTR 290528
TAFSNS
TAF
KSNS 290528Z 2906/3006 32008KT P6SM SCT250
     FM290900 31005KT P6SM BKN015
     FM291100 VRB03KT 6SM BR OVC008
     FM291500 25004KT P6SM SCT015 BKN025
     FM291800 28006KT P6SM FEW015 SCT025
     FM292100 28010G15KT P6SM BKN250=



000
FTUS46 KMTR 290528
TAFMRY
TAF
KMRY 290528Z 2906/3006 00000KT P6SM SCT250
     FM290800 VRB03KT P6SM BKN015
     FM291100 00000KT 6SM BR OVC008
     FM291500 VRB03KT P6SM SCT015 BKN025
     FM291800 28008KT P6SM FEW015 SCT025
     FM292100 28010G15KT P6SM BKN250
     FM300200 24008KT P6SM SCT250
     FM300400 23005KT P6SM BKN008=



000
FTUS46 KMTR 290528
TAFOAK
TAF
KOAK 290528Z 2906/3012 29008KT P6SM OVC007
     FM291600 24008KT P6SM BKN008 OVC015
     FM291800 26010KT P6SM SCT020 BKN025 BKN050
     FM292000 28012KT P6SM SCT025
     FM292200 28015G20KT P6SM BKN250
     FM300500 28010KT P6SM SCT250=



000
FTUS46 KMTR 290429 AAA
TAFOAK
TAF AMD
KOAK 290429Z 2904/3006 29008KT P6SM OVC007
     FM291600 24008KT P6SM BKN015
     FM291800 26010KT P6SM SCT020 BKN025 BKN050
     FM292000 28012KT P6SM SCT025
     FM292100 28015KT P6SM BKN250
     FM300300 28010KT P6SM SCT250=



000
FTUS46 KMTR 290429 AAA
TAFOAK
TAF AMD
KOAK 290429Z 2904/3006 29008KT P6SM OVC007
     FM291600 24008KT P6SM BKN015
     FM291800 26010KT P6SM SCT020 BKN025 BKN050
     FM292000 28012KT P6SM SCT025
     FM292100 28015KT P6SM BKN250
     FM300300 28010KT P6SM SCT250=



    US Dept of Commerce
    National Oceanic and Atmospheric Administration
    National Weather Service
    1325 East West Highway
    Silver Spring, MD 20910
    Page Author: NWS Internet Services Team
Disclaimer
Information Quality
Credits
Glossary
Privacy Policy
Freedom of Information Act (FOIA)
About Us
Career Opportunities